Terminal Aerodrome Forecast
Issued by NWS

Current Version | Previous Version | Graphics & Text | Print | Product List | Glossary On
Versions: 1 2 3 4 5 6 7 8 9 10 11 12 13 14 15
000
FTUS41 KRNK 261124
TAFLWB
TAF
KLWB 261124Z 2612/2712 27008G16KT P6SM OVC035
     FM261400 28012G20KT P6SM BKN045
     FM261900 28010KT P6SM SCT035
     FM270000 27003KT P6SM SCT120
     FM270600 00000KT P6SM BKN100=

USA.gov is the U.S. government's official web portal to all federal, state and local government web resources and services.